Time;durP1;ratioP1;P1;durP2;ratioP2;P2;SDS_P1;SDS_P2;PMS_P1;PMS_P2;Temp;Humidity;BMP_temperature;BMP_pressure;BME280_temperature;BME280_humidity;BME280_pressure;Samples;Min_cycle;Max_cycle;Signal;HPM_P1;HPM_P2
2022/12/05 00:01:27;;;;;;;28.40;14.87;;;;;;;6.64;77.10;100483.97;5120856;27;20236;-62
2022/12/05 00:03:57;;;;;;;28.77;14.70;;;;;;;6.64;76.74;100489.22;5123457;27;20202;-62
2022/12/05 00:06:27;;;;;;;28.50;14.27;;;;;;;6.52;76.84;100499.88;5121951;27;20229;-62
2022/12/05 00:08:56;;;;;;;28.87;13.77;;;;;;;6.45;77.78;100496.06;5122006;27;20210;-61
2022/12/05 00:11:26;;;;;;;26.47;14.27;;;;;;;6.42;77.67;100502.41;5120857;27;20233;-63
2022/12/05 00:13:58;;;;;;;30.30;15.03;;;;;;;6.43;77.83;100498.81;5123856;27;21883;-63
2022/12/05 00:16:29;;;;;;;29.27;13.77;;;;;;;6.37;78.36;100510.69;5120731;27;20666;-61
2022/12/05 00:18:59;;;;;;;28.43;13.50;;;;;;;6.27;78.84;100509.72;5122036;27;20208;-62
2022/12/05 00:21:29;;;;;;;29.17;13.40;;;;;;;6.25;79.27;100511.63;5122275;27;20210;-60
2022/12/05 00:23:58;;;;;;;31.73;14.33;;;;;;;6.27;79.63;100511.53;5119598;27;20568;-61
2022/12/05 00:26:27;;;;;;;28.67;15.43;;;;;;;6.27;79.71;100509.72;5115184;27;20276;-62
2022/12/05 00:28:56;;;;;;;27.87;14.03;;;;;;;6.31;79.42;100518.25;5119284;27;20233;-62
2022/12/05 00:31:25;;;;;;;31.43;14.50;;;;;;;6.33;79.43;100519.78;5124081;27;21264;-61
2022/12/05 00:33:54;;;;;;;29.73;14.47;;;;;;;6.34;79.35;100520.63;5123782;27;20206;-62
2022/12/05 00:36:24;;;;;;;32.57;15.13;;;;;;;6.23;79.69;100513.56;5123276;27;20205;-60
2022/12/05 00:38:52;;;;;;;28.53;14.70;;;;;;;6.28;79.70;100515.84;5121147;27;20639;-62
2022/12/05 00:41:26;;;;;;;28.43;13.53;;;;;;;6.41;78.71;100513.94;5124969;27;20645;-60
2022/12/05 00:43:56;;;;;;;28.83;14.27;;;;;;;6.42;78.21;100516.41;5125899;27;20305;-61
2022/12/05 00:46:26;;;;;;;25.83;12.93;;;;;;;6.35;78.52;100517.03;5122724;27;20206;-61
2022/12/05 00:48:55;;;;;;;32.97;14.90;;;;;;;6.33;79.08;100513.69;5126504;27;20209;-61
2022/12/05 00:51:25;;;;;;;28.07;13.20;;;;;;;6.37;78.94;100518.59;5127421;27;20208;-64
2022/12/05 00:53:59;;;;;;;30.57;14.17;;;;;;;6.38;78.81;100520.28;5123123;27;20619;-64
2022/12/05 00:56:29;;;;;;;27.00;13.23;;;;;;;6.39;78.90;100524.59;5122632;27;20209;-64
2022/12/05 00:58:59;;;;;;;29.60;14.47;;;;;;;6.34;78.77;100521.44;5124318;27;20302;-64
2022/12/05 01:01:31;;;;;;;26.90;13.47;;;;;;;6.29;79.26;100523.63;5124610;27;20208;-64
2022/12/05 01:04:02;;;;;;;28.60;14.03;;;;;;;6.31;79.32;100516.44;5120889;27;20778;-64
2022/12/05 01:06:30;;;;;;;28.33;13.47;;;;;;;6.31;79.31;100529.63;5124452;27;20243;-64
2022/12/05 01:08:58;;;;;;;27.80;13.90;;;;;;;6.36;78.89;100530.06;5126140;27;20225;-64
2022/12/05 01:11:27;;;;;;;29.93;14.40;;;;;;;6.38;78.63;100532.59;5126382;27;20240;-64
2022/12/05 01:13:55;;;;;;;27.60;14.07;;;;;;;6.48;78.03;100532.72;5121755;27;20206;-64
2022/12/05 01:16:26;;;;;;;29.93;14.17;;;;;;;6.43;77.98;100530.44;5123921;27;20205;-63
2022/12/05 01:18:55;;;;;;;33.00;14.13;;;;;;;6.39;78.31;100539.56;5124495;27;20209;-64
2022/12/05 01:21:23;;;;;;;27.17;14.40;;;;;;;6.35;78.23;100544.19;5127047;27;20197;-63
2022/12/05 01:23:51;;;;;;;27.17;13.07;;;;;;;6.29;78.69;100539.41;5124795;27;20210;-63
2022/12/05 01:26:21;;;;;;;29.27;13.37;;;;;;;6.32;78.83;100541.00;5124779;27;20285;-63
2022/12/05 01:28:49;;;;;;;28.03;14.40;;;;;;;6.38;78.72;100538.72;5124326;27;20261;-63
2022/12/05 01:31:22;;;;;;;30.00;15.27;;;;;;;6.37;78.52;100547.56;5122894;27;20210;-63
2022/12/05 01:33:53;;;;;;;26.57;14.03;;;;;;;6.48;77.94;100538.84;5125292;27;20217;-63
2022/12/05 01:36:21;;;;;;;27.90;13.80;;;;;;;6.39;78.31;100547.44;5124365;27;20225;-64
2022/12/05 01:38:50;;;;;;;27.47;13.93;;;;;;;6.30;78.61;100550.78;5122974;27;20681;-64
2022/12/05 01:41:19;;;;;;;29.57;14.60;;;;;;;6.31;78.93;100549.84;5124197;27;20212;-64
2022/12/05 01:43:56;;;;;;;28.63;13.77;;;;;;;6.36;78.69;100537.16;5123427;27;20544;-63
2022/12/05 01:46:25;;;;;;;28.57;13.73;;;;;;;6.35;78.15;100549.47;5122133;27;20280;-64
2022/12/05 01:48:59;;;;;;;30.27;14.23;;;;;;;6.41;78.15;100542.91;5121779;27;20278;-64
2022/12/05 01:51:27;;;;;;;30.23;14.37;;;;;;;6.31;78.24;100548.06;5120839;27;20205;-63
2022/12/05 01:53:55;;;;;;;30.77;15.17;;;;;;;6.26;78.85;100552.81;5124492;27;20650;-63
2022/12/05 01:56:23;;;;;;;29.13;14.13;;;;;;;6.20;79.36;100555.94;5125520;27;20201;-63
2022/12/05 01:58:52;;;;;;;28.30;13.40;;;;;;;6.19;79.60;100551.63;5123484;27;20729;-63
2022/12/05 02:01:20;;;;;;;29.93;13.77;;;;;;;6.14;80.11;100556.41;5125157;27;20304;-64
2022/12/05 02:03:52;;;;;;;28.43;14.43;;;;;;;6.23;80.18;100560.97;5122491;27;20691;-63
2022/12/05 02:06:23;;;;;;;31.90;15.03;;;;;;;6.36;79.44;100561.69;5123711;27;20213;-64
2022/12/05 02:08:51;;;;;;;32.40;14.33;;;;;;;6.49;78.51;100564.22;5121983;27;20221;-64
2022/12/05 02:11:20;;;;;;;31.30;14.50;;;;;;;6.45;78.32;100568.03;5124722;27;20288;-64
2022/12/05 02:13:59;;;;;;;33.57;14.67;;;;;;;6.54;77.68;100561.22;5122738;27;20201;-64
2022/12/05 02:16:41;;;;;;;35.23;14.37;;;;;;;6.44;77.86;100563.72;5124124;27;20250;-64
2022/12/05 02:19:51;;;;;;;27.40;14.00;;;;;;;6.37;78.21;100562.53;5122605;27;20563;-63
2022/12/05 02:22:51;;;;;;;30.37;13.80;;;;;;;6.41;77.94;100564.81;5064777;28;20715;-64
2022/12/05 02:25:43;;;;;;;30.00;14.40;;;;;;;6.38;77.95;100565.03;5054242;28;20294;-66
2022/12/05 02:28:42;;;;;;;35.40;14.47;;;;;;;6.49;77.66;100573.91;5106012;27;20298;-65
2022/12/05 02:31:16;;;;;;;33.00;13.13;;;;;;;6.50;77.19;100575.59;5118588;27;20210;-64
2022/12/05 02:33:48;;;;;;;30.63;14.47;;;;;;;6.46;77.39;100574.16;5123631;27;20198;-64
2022/12/05 02:36:22;;;;;;;33.00;15.53;;;;;;;6.34;78.54;100573.28;5121157;27;20216;-65
2022/12/05 02:39:00;;;;;;;34.57;15.10;;;;;;;6.34;78.68;100574.13;5122738;27;20194;-64
2022/12/05 02:41:35;;;;;;;30.57;14.30;;;;;;;6.35;78.59;100575.81;5125913;27;20212;-64
2022/12/05 02:44:05;;;;;;;33.00;14.83;;;;;;;6.50;77.96;100578.22;5124530;27;20194;-64
2022/12/05 02:46:38;;;;;;;30.30;14.50;;;;;;;6.37;78.26;100570.44;5120107;27;20202;-65
2022/12/05 02:49:10;;;;;;;32.53;15.37;;;;;;;6.31;78.84;100570.91;5123469;27;20222;-63
2022/12/05 02:51:42;;;;;;;33.73;15.20;;;;;;;6.32;79.01;100576.06;5123295;27;20583;-64
2022/12/05 02:54:14;;;;;;;33.17;13.93;;;;;;;6.38;78.80;100574.75;5120866;27;20201;-63
2022/12/05 02:56:45;;;;;;;33.17;15.03;;;;;;;6.47;78.26;100578.47;5124123;27;20206;-65
2022/12/05 02:59:13;;;;;;;28.53;14.67;;;;;;;6.39;78.04;100572.00;5115891;27;20205;-64
2022/12/05 03:01:49;;;;;;;30.57;14.77;;;;;;;6.33;78.79;100582.19;5121177;27;20202;-64
2022/12/05 03:04:20;;;;;;;34.03;15.67;;;;;;;6.41;78.36;100596.44;5127249;27;20232;-64
2022/12/05 03:06:52;;;;;;;38.50;16.37;;;;;;;6.41;77.81;100604.34;5129403;27;20208;-64
2022/12/05 03:09:24;;;;;;;31.40;14.30;;;;;;;6.41;77.69;100601.69;5128258;27;20303;-63
2022/12/05 03:11:56;;;;;;;30.50;14.67;;;;;;;6.31;77.80;100595.47;5125811;27;20229;-63
2022/12/05 03:14:28;;;;;;;37.80;15.00;;;;;;;6.37;77.96;100591.50;5126825;27;20220;-64
2022/12/05 03:17:03;;;;;;;36.73;15.20;;;;;;;6.35;78.41;100601.31;5125356;27;20206;-63
2022/12/05 03:19:40;;;;;;;35.03;15.67;;;;;;;6.34;78.19;100613.63;5125667;27;20210;-65
2022/12/05 03:22:15;;;;;;;35.13;14.73;;;;;;;6.22;78.28;100611.97;5127519;27;20198;-64
2022/12/05 03:24:46;;;;;;;35.03;15.40;;;;;;;6.28;78.59;100606.22;5122740;27;20211;-63
2022/12/05 03:27:22;;;;;;;32.90;16.13;;;;;;;6.43;77.91;100607.66;5122684;27;20551;-64
2022/12/05 03:29:56;;;;;;;38.63;16.70;;;;;;;6.32;77.98;100612.94;5099163;27;20286;-64
2022/12/05 03:32:33;;;;;;;36.17;15.13;;;;;;;6.25;78.64;100609.06;5095436;27;20202;-64
2022/12/05 03:35:07;;;;;;;35.97;14.87;;;;;;;6.28;79.08;100621.19;5105144;27;20859;-65
2022/12/05 03:37:44;;;;;;;40.50;16.00;;;;;;;6.40;78.44;100618.47;5097461;27;20195;-66
2022/12/05 03:40:22;;;;;;;39.83;17.20;;;;;;;6.47;78.38;100615.34;5108435;27;20574;-65
2022/12/05 03:42:56;;;;;;;34.10;15.50;;;;;;;6.62;77.78;100619.41;5104519;27;20204;-63
2022/12/05 03:45:31;;;;;;;36.80;15.17;;;;;;;6.60;77.39;100616.06;5097565;27;20571;-63
2022/12/05 03:48:07;;;;;;;36.07;17.03;;;;;;;6.60;77.39;100621.31;5097784;27;20202;-64
2022/12/05 03:50:39;;;;;;;34.77;15.83;;;;;;;6.58;77.00;100624.09;5104938;27;20210;-64
2022/12/05 03:53:14;;;;;;;37.17;16.50;;;;;;;6.45;77.46;100628.63;5106201;27;20205;-65
2022/12/05 03:55:54;;;;;;;36.73;16.23;;;;;;;6.32;78.08;100631.38;5106477;27;20198;-65
2022/12/05 03:58:27;;;;;;;36.97;15.97;;;;;;;6.31;78.39;100631.50;5103746;27;20699;-63
2022/12/05 04:00:58;;;;;;;40.33;15.63;;;;;;;6.37;78.33;100639.75;5108654;27;20210;-64
2022/12/05 04:03:38;;;;;;;38.43;16.20;;;;;;;6.41;78.22;100640.38;5097003;28;20203;-64
2022/12/05 04:06:12;;;;;;;39.13;16.50;;;;;;;6.30;78.60;100637.72;5093756;27;20233;-64
2022/12/05 04:08:47;;;;;;;32.50;15.10;;;;;;;6.34;78.81;100647.88;5097894;27;21133;-64
2022/12/05 04:11:18;;;;;;;30.27;15.30;;;;;;;6.33;79.08;100638.28;5100896;28;20236;-64
2022/12/05 04:13:50;;;;;;;39.30;16.83;;;;;;;6.25;79.26;100643.31;5104568;27;20398;-65
2022/12/05 04:19:15;;;;;;;39.00;15.50;;;;;;;6.42;78.59;100649.91;5106666;27;20206;-66
2022/12/05 04:21:46;;;;;;;37.30;16.50;;;;;;;6.46;78.64;100648.75;5088545;27;20210;-64
2022/12/05 04:27:27;;;;;;;35.90;15.90;;;;;;;6.32;79.28;100649.81;5024783;28;20216;-63
2022/12/05 04:30:02;;;;;;;38.17;16.23;;;;;;;6.30;79.43;100650.88;5025827;28;21021;-63
2022/12/05 04:32:37;;;;;;;44.97;16.63;;;;;;;6.23;79.77;100647.88;5068205;28;20225;-64
2022/12/05 04:35:13;;;;;;;38.63;16.70;;;;;;;6.31;79.74;100658.66;5087465;28;20541;-64
2022/12/05 04:37:44;;;;;;;43.10;16.43;;;;;;;6.32;79.32;100655.06;5095335;28;20214;-64
2022/12/05 04:40:19;;;;;;;38.10;16.63;;;;;;;6.24;79.62;100651.34;5094365;28;20214;-64
2022/12/05 04:42:49;;;;;;;40.13;16.33;;;;;;;6.29;79.82;100655.31;5102820;27;20210;-64
2022/12/05 04:45:20;;;;;;;42.37;17.53;;;;;;;6.44;79.39;100653.28;5097152;28;20784;-64
2022/12/05 04:47:51;;;;;;;41.93;17.13;;;;;;;6.57;78.49;100651.41;5098857;28;20203;-64
2022/12/05 04:50:22;;;;;;;44.43;18.37;;;;;;;6.61;77.92;100644.91;5103116;27;20234;-63
2022/12/05 04:52:55;;;;;;;41.17;17.23;;;;;;;6.67;77.76;100646.25;5084895;27;20301;-64
2022/12/05 04:55:26;;;;;;;38.87;16.93;;;;;;;6.77;77.35;100644.59;5097136;28;20567;-65
2022/12/05 04:58:01;;;;;;;37.17;17.23;;;;;;;6.82;77.03;100641.59;5099363;27;20234;-65
2022/12/05 05:00:31;;;;;;;40.77;18.03;;;;;;;6.77;76.95;100645.41;5095458;27;20206;-64
2022/12/05 05:03:06;;;;;;;40.93;17.63;;;;;;;6.71;77.37;100639.78;5094050;28;20210;-64
2022/12/05 05:05:39;;;;;;;37.50;18.07;;;;;;;6.68;77.45;100640.88;5084579;28;20202;-64
2022/12/05 05:08:16;;;;;;;42.37;17.83;;;;;;;6.55;77.90;100637.50;5083876;28;20210;-64
2022/12/05 05:10:52;;;;;;;43.80;18.97;;;;;;;6.41;78.95;100635.94;5097537;27;20730;-64
2022/12/05 05:13:20;;;;;;;44.40;18.63;;;;;;;6.47;79.22;100636.41;5103384;27;20205;-64
2022/12/05 05:15:47;;;;;;;35.70;17.63;;;;;;;6.57;78.56;100637.38;5105106;27;20210;-64
2022/12/05 05:18:15;;;;;;;42.33;18.63;;;;;;;6.56;78.71;100641.81;5103609;27;20213;-63
2022/12/05 05:20:44;;;;;;;39.17;17.40;;;;;;;6.54;78.61;100642.88;5098639;27;20202;-63
2022/12/05 05:23:12;;;;;;;40.60;18.77;;;;;;;6.54;78.31;100643.72;5104198;27;20306;-64
2022/12/05 05:25:40;;;;;;;41.87;18.27;;;;;;;6.45;78.49;100639.16;5092630;28;20211;-63
2022/12/05 05:28:07;;;;;;;44.17;18.90;;;;;;;6.39;79.29;100645.75;5099032;27;20376;-63
2022/12/05 05:30:35;;;;;;;41.70;18.00;;;;;;;6.42;79.45;100648.13;5124559;27;20300;-63
2022/12/05 05:33:03;;;;;;;41.00;19.50;;;;;;;6.45;79.28;100648.84;5125182;27;20258;-64
2022/12/05 05:35:30;;;;;;;42.63;18.97;;;;;;;6.36;79.64;100651.25;5123057;27;20278;-64
2022/12/05 05:37:59;;;;;;;46.70;19.33;;;;;;;6.34;80.44;100650.50;5125604;27;20202;-64
2022/12/05 05:40:27;;;;;;;49.10;19.83;;;;;;;6.51;79.76;100653.69;5125738;27;21825;-64
2022/12/05 05:42:55;;;;;;;41.43;18.00;;;;;;;6.63;78.46;100652.72;5125262;27;20213;-63
2022/12/05 05:45:23;;;;;;;40.60;18.50;;;;;;;6.58;78.46;100653.09;5121250;27;20205;-63
2022/12/05 05:47:50;;;;;;;42.83;18.10;;;;;;;6.56;78.82;100646.25;5124294;27;20201;-63
2022/12/05 05:50:18;;;;;;;41.73;18.10;;;;;;;6.48;79.08;100653.91;5124449;27;20240;-64
2022/12/05 05:52:48;;;;;;;43.40;16.97;;;;;;;6.47;79.11;100662.75;5123508;27;20212;-64
2022/12/05 05:55:17;;;;;;;41.17;18.57;;;;;;;6.37;79.47;100668.72;5120426;27;20221;-63
2022/12/05 05:57:45;;;;;;;37.87;17.03;;;;;;;6.36;79.39;100667.03;5122393;27;20201;-63
2022/12/05 06:00:14;;;;;;;36.87;16.87;;;;;;;6.52;78.77;100665.88;5117649;27;21597;-63
2022/12/05 06:02:42;;;;;;;38.87;17.53;;;;;;;6.53;78.45;100667.53;5120160;27;20208;-63
2022/12/05 06:05:10;;;;;;;39.97;18.60;;;;;;;6.65;77.83;100677.16;5122488;27;21103;-64
2022/12/05 06:07:38;;;;;;;37.63;17.57;;;;;;;6.74;77.21;100672.03;5121571;27;20205;-64
2022/12/05 06:10:07;;;;;;;40.23;17.37;;;;;;;6.72;77.06;100681.00;5123597;27;20222;-64
2022/12/05 06:12:36;;;;;;;35.47;17.20;;;;;;;6.69;77.39;100679.44;5122839;27;20209;-64
2022/12/05 06:15:05;;;;;;;39.77;17.87;;;;;;;6.54;77.51;100677.13;5122653;27;20322;-67
2022/12/05 06:17:33;;;;;;;43.97;18.30;;;;;;;6.32;79.00;100688.47;5119785;27;20211;-63
2022/12/05 06:20:00;;;;;;;44.50;17.93;;;;;;;6.39;79.36;100689.69;5119338;27;20205;-64
2022/12/05 06:22:29;;;;;;;37.97;18.03;;;;;;;6.51;78.84;100686.09;5122685;27;20204;-62
2022/12/05 06:24:57;;;;;;;38.93;16.97;;;;;;;6.53;78.62;100697.38;5127546;27;20675;-63
2022/12/05 06:27:25;;;;;;;37.83;16.80;;;;;;;6.53;78.44;100697.38;5117757;27;20212;-63
2022/12/05 06:29:54;;;;;;;41.27;17.00;;;;;;;6.41;79.03;100706.22;5123869;27;20221;-64
2022/12/05 06:32:22;;;;;;;44.55;21.17;;;;;;;6.37;79.62;100702.97;5124897;27;20431;-64
2022/12/05 06:34:50;;;;;;;38.83;17.53;;;;;;;6.38;79.42;100707.28;5111212;27;20621;-64
2022/12/05 06:37:18;;;;;;;40.27;18.77;;;;;;;6.29;79.76;100712.41;5119508;27;20579;-64
2022/12/05 06:39:45;;;;;;;37.77;17.00;;;;;;;6.23;79.90;100711.06;5119694;27;20212;-64
2022/12/05 06:42:13;;;;;;;39.00;16.57;;;;;;;6.18;80.63;100705.28;5126400;27;20712;-65
2022/12/05 06:44:41;;;;;;;41.87;17.10;;;;;;;6.31;80.41;100700.81;5119565;27;20577;-65
2022/12/05 06:47:10;;;;;;;38.57;17.47;;;;;;;6.35;80.32;100701.41;5116999;27;20210;-65
2022/12/05 06:49:37;;;;;;;42.97;18.77;;;;;;;6.41;80.56;100703.59;5118874;27;20205;-65
2022/12/05 06:52:05;;;;;;;39.73;17.40;;;;;;;6.49;80.12;100697.72;5117990;27;20242;-65
2022/12/05 06:54:33;;;;;;;44.43;17.73;;;;;;;6.60;79.44;100714.38;5117155;27;20236;-65
2022/12/05 06:57:01;;;;;;;39.83;17.40;;;;;;;6.72;78.48;100717.88;5117942;27;20557;-64
2022/12/05 06:59:28;;;;;;;41.30;18.10;;;;;;;6.62;78.22;100719.53;5112854;27;20208;-64
2022/12/05 07:01:55;;;;;;;41.87;18.10;;;;;;;6.54;79.08;100721.91;5120603;27;20206;-65
2022/12/05 07:04:24;;;;;;;40.10;18.00;;;;;;;6.60;79.24;100717.03;5120366;27;20209;-65
2022/12/05 07:06:54;;;;;;;44.73;17.90;;;;;;;6.61;79.00;100721.34;5118112;27;20206;-64
2022/12/05 07:09:44;;;;;;;40.67;17.63;;;;;;;6.62;79.07;100727.44;5118727;27;20225;-65
2022/12/05 07:12:13;;;;;;;39.03;18.20;;;;;;;6.59;79.34;100735.59;5117513;27;20213;-65
2022/12/05 07:14:41;;;;;;;38.33;17.13;;;;;;;6.62;78.83;100743.25;5119774;27;20209;-65
2022/12/05 07:17:17;;;;;;;41.20;16.43;;;;;;;6.59;78.89;100746.16;5117325;27;20206;-65
2022/12/05 07:19:48;;;;;;;42.07;17.43;;;;;;;6.47;79.73;100747.06;5116189;27;20562;-64
2022/12/05 07:22:16;;;;;;;43.53;17.53;;;;;;;6.40;80.29;100744.91;5113296;27;20233;-65
2022/12/05 07:24:44;;;;;;;48.27;18.37;;;;;;;6.39;80.46;100735.31;5111557;27;20281;-65
2022/12/05 07:27:12;;;;;;;43.87;18.43;;;;;;;6.35;80.83;100741.75;5110214;27;20217;-63
2022/12/05 07:29:40;;;;;;;46.27;18.70;;;;;;;6.27;81.33;100740.63;5104048;27;20227;-65
2022/12/05 07:32:08;;;;;;;46.97;18.63;;;;;;;6.26;81.36;100752.97;5121817;27;20220;-65
2022/12/05 07:34:37;;;;;;;46.17;18.60;;;;;;;6.17;82.21;100764.16;5118815;27;20775;-65
2022/12/05 07:37:06;;;;;;;50.30;19.03;;;;;;;6.15;82.55;100755.56;5119636;27;20685;-65
2022/12/05 07:39:34;;;;;;;42.90;17.97;;;;;;;6.18;82.22;100757.97;5120747;27;20259;-65
2022/12/05 07:42:02;;;;;;;42.30;18.33;;;;;;;6.15;82.46;100766.09;5121425;27;20239;-65
2022/12/05 07:44:30;;;;;;;45.43;17.30;;;;;;;6.18;82.76;100762.38;5118327;27;20213;-64
2022/12/05 07:46:58;;;;;;;43.00;17.90;;;;;;;6.25;82.76;100769.72;5115416;27;20210;-64
2022/12/05 07:49:26;;;;;;;46.40;19.47;;;;;;;6.28;82.61;100772.13;5123218;27;20205;-64
2022/12/05 07:51:54;;;;;;;45.50;17.87;;;;;;;6.27;82.52;100773.09;5120697;27;20232;-64
2022/12/05 07:54:23;;;;;;;50.70;18.20;;;;;;;6.20;83.04;100769.22;5123602;27;20205;-64
2022/12/05 07:56:51;;;;;;;41.03;17.73;;;;;;;6.23;82.91;100765.53;5121738;27;20296;-65
2022/12/05 07:59:19;;;;;;;43.03;17.63;;;;;;;6.31;83.22;100763.16;5125600;27;20201;-64
2022/12/05 08:01:47;;;;;;;46.00;17.47;;;;;;;6.36;82.94;100759.22;5118904;27;20660;-63
2022/12/05 08:04:14;;;;;;;43.30;18.77;;;;;;;6.38;82.03;100767.88;5124325;27;20801;-62
2022/12/05 08:06:43;;;;;;;46.20;17.77;;;;;;;6.32;82.49;100778.88;5121572;27;20232;-62
2022/12/05 08:09:11;;;;;;;47.50;18.30;;;;;;;6.30;82.86;100788.66;5124624;27;20193;-63
2022/12/05 08:11:40;;;;;;;37.60;16.70;;;;;;;6.39;82.85;100781.88;5118344;27;20236;-63
2022/12/05 08:14:08;;;;;;;51.33;18.67;;;;;;;6.49;81.98;100787.31;5129024;27;20201;-63
2022/12/05 08:16:36;;;;;;;38.40;17.47;;;;;;;6.59;81.54;100785.66;5125380;27;20206;-62
2022/12/05 08:19:06;;;;;;;47.07;17.50;;;;;;;6.67;81.13;100791.19;5127476;27;20201;-63
2022/12/05 08:21:34;;;;;;;39.40;17.00;;;;;;;6.69;81.14;100789.28;5127938;27;20205;-63
2022/12/05 08:24:04;;;;;;;38.37;17.27;;;;;;;6.64;81.10;100792.25;5129881;27;20213;-63
2022/12/05 08:26:33;;;;;;;46.70;18.93;;;;;;;6.57;81.56;100792.84;5126505;27;20202;-63
2022/12/05 08:29:06;;;;;;;41.50;18.53;;;;;;;6.52;82.28;100792.31;5130382;27;20286;-63
2022/12/05 08:31:36;;;;;;;43.77;18.33;;;;;;;6.59;82.08;100794.41;5123599;27;20229;-63
2022/12/05 08:34:03;;;;;;;40.47;18.00;;;;;;;6.69;81.70;100794.53;5126944;27;20203;-63
2022/12/05 08:36:32;;;;;;;41.87;17.70;;;;;;;6.65;81.93;100803.66;5114427;27;20198;-63
2022/12/05 08:39:04;;;;;;;36.83;16.70;;;;;;;6.65;82.15;100793.94;5120781;27;20220;-64
2022/12/05 08:41:32;;;;;;;36.30;16.17;;;;;;;6.73;81.99;100796.00;5128148;27;20250;-64
2022/12/05 08:44:02;;;;;;;43.37;17.23;;;;;;;6.69;81.97;100802.44;5120344;27;20198;-63
2022/12/05 08:46:33;;;;;;;38.10;16.33;;;;;;;6.75;81.75;100804.66;5119994;27;20224;-64
2022/12/05 08:49:01;;;;;;;36.10;16.73;;;;;;;6.79;81.62;100811.34;5121248;27;20201;-64
2022/12/05 08:51:29;;;;;;;40.77;17.83;;;;;;;6.81;81.81;100812.06;5118336;27;20260;-64
2022/12/05 08:53:57;;;;;;;40.67;17.13;;;;;;;6.87;81.36;100816.88;5125511;27;20209;-63
2022/12/05 08:56:25;;;;;;;38.23;16.80;;;;;;;6.97;80.86;100822.28;5125120;27;20698;-64
2022/12/05 08:58:54;;;;;;;38.53;16.80;;;;;;;6.92;80.57;100822.66;5121933;27;20254;-64
2022/12/05 09:01:35;;;;;;;36.23;15.90;;;;;;;6.85;81.12;100824.09;5113586;27;20208;-64
2022/12/05 09:04:05;;;;;;;37.30;17.33;;;;;;;6.82;81.62;100829.56;5126501;27;20682;-64
2022/12/05 09:06:34;;;;;;;36.13;16.43;;;;;;;6.87;81.30;100823.94;5123468;27;20726;-64
2022/12/05 09:09:06;;;;;;;42.23;16.63;;;;;;;6.82;81.24;100826.94;5123017;27;20730;-65
2022/12/05 09:11:36;;;;;;;37.93;16.53;;;;;;;6.77;81.72;100837.00;5122391;27;20233;-64
2022/12/05 09:14:04;;;;;;;39.30;17.13;;;;;;;6.75;82.04;100836.28;5116008;27;20217;-63
2022/12/05 09:16:36;;;;;;;37.63;15.93;;;;;;;6.73;82.17;100835.53;5121460;27;20287;-64
2022/12/05 09:19:10;;;;;;;35.93;17.50;;;;;;;6.74;82.49;100834.59;5118487;27;20279;-64
2022/12/05 09:21:38;;;;;;;42.73;18.00;;;;;;;6.86;81.94;100844.19;5120032;27;20194;-65
2022/12/05 09:24:06;;;;;;;43.40;18.07;;;;;;;6.94;81.78;100852.41;5124060;27;20206;-65
2022/12/05 09:26:34;;;;;;;42.43;19.00;;;;;;;6.92;81.89;100853.47;5117293;27;20259;-63
2022/12/05 09:29:02;;;;;;;38.37;17.43;;;;;;;6.89;82.22;100862.44;5120373;27;20233;-63
2022/12/05 09:31:30;;;;;;;41.70;16.23;;;;;;;6.84;82.53;100848.75;5120788;27;20586;-66
2022/12/05 09:34:00;;;;;;;39.17;15.80;;;;;;;6.84;82.71;100863.75;5124282;27;20231;-66
2022/12/05 09:36:30;;;;;;;36.23;15.90;;;;;;;6.69;83.29;100863.06;5126168;27;20214;-65
2022/12/05 09:39:01;;;;;;;38.60;16.93;;;;;;;6.60;84.20;100869.00;5119343;27;20194;-64
2022/12/05 09:42:07;;;;;;;38.73;16.23;;;;;;;6.62;85.02;100864.47;5123018;27;20674;-64
2022/12/05 09:44:54;;;;;;;32.90;15.77;;;;;;;6.64;84.62;100852.88;5126556;27;20208;-64
2022/12/05 09:47:31;;;;;;;34.60;15.63;;;;;;;6.66;84.91;100850.13;5121587;27;20296;-65
2022/12/05 09:50:10;;;;;;;33.90;14.23;;;;;;;6.69;84.70;100852.53;5124698;27;20216;-65
2022/12/05 09:52:41;;;;;;;32.47;14.87;;;;;;;6.65;84.97;100856.34;5124225;27;20616;-62
2022/12/05 09:55:13;;;;;;;44.73;15.40;;;;;;;6.64;85.46;100862.56;5121915;27;20202;-62
2022/12/05 09:57:45;;;;;;;39.63;15.20;;;;;;;6.66;85.83;100858.03;5120475;27;20217;-63
2022/12/05 10:00:14;;;;;;;34.00;14.53;;;;;;;6.74;85.65;100855.69;5121559;27;20213;-64
2022/12/05 10:02:56;;;;;;;35.60;15.90;;;;;;;6.74;85.41;100850.41;5116951;27;20292;-64
2022/12/05 10:05:29;;;;;;;39.93;14.83;;;;;;;6.79;85.56;100842.97;5113311;27;20213;-65
2022/12/05 10:08:06;;;;;;;40.53;15.83;;;;;;;6.84;85.39;100847.91;5119381;27;20202;-63
2022/12/05 10:10:45;;;;;;;34.07;14.77;;;;;;;6.86;85.26;100849.47;5121987;27;20232;-63
2022/12/05 10:13:28;;;;;;;32.97;14.40;;;;;;;6.94;84.94;100847.13;5112136;27;20218;-65
2022/12/05 10:16:00;;;;;;;34.77;15.50;;;;;;;7.08;84.07;100853.97;5114722;27;20201;-63
2022/12/05 10:18:37;;;;;;;39.10;15.47;;;;;;;7.09;84.07;100850.38;5118793;27;20204;-64
2022/12/05 10:21:14;;;;;;;37.67;17.07;;;;;;;7.04;84.35;100847.25;5118451;27;20201;-64
2022/12/05 10:23:51;;;;;;;37.23;16.83;;;;;;;6.98;84.76;100845.91;5121789;27;20614;-63
2022/12/05 10:26:28;;;;;;;35.07;16.07;;;;;;;6.95;85.08;100846.13;5116153;27;20251;-63
2022/12/05 10:29:02;;;;;;;35.53;16.23;;;;;;;6.99;85.21;100838.84;5115187;27;20252;-63
2022/12/05 10:31:34;;;;;;;32.40;15.57;;;;;;;6.95;85.35;100843.50;5116972;27;20219;-65
2022/12/05 10:34:11;;;;;;;38.93;17.27;;;;;;;6.99;84.99;100839.69;5122245;27;20244;-64
2022/12/05 10:36:44;;;;;;;36.97;17.00;;;;;;;7.10;84.58;100842.38;5117193;27;20201;-64
2022/12/05 10:39:12;;;;;;;37.20;16.63;;;;;;;7.20;83.36;100842.50;5117676;27;20211;-63
2022/12/05 10:41:39;;;;;;;35.93;16.10;;;;;;;7.25;83.04;100850.03;5122129;27;20202;-64
2022/12/05 10:44:08;;;;;;;36.57;17.27;;;;;;;7.19;82.92;100848.72;5120862;27;20213;-64
2022/12/05 10:46:36;;;;;;;34.00;15.50;;;;;;;7.03;83.88;100849.06;5122998;27;20201;-63
2022/12/05 10:49:10;;;;;;;35.03;16.90;;;;;;;7.01;84.69;100848.34;5107958;27;20689;-64
2022/12/05 10:51:39;;;;;;;35.47;17.90;;;;;;;7.02;84.86;100851.81;5118944;27;20230;-63
2022/12/05 10:54:17;;;;;;;35.63;17.87;;;;;;;7.04;84.98;100858.63;5119441;27;20239;-64
2022/12/05 10:56:46;;;;;;;37.23;16.93;;;;;;;7.06;84.62;100840.91;5119968;27;20307;-65
2022/12/05 10:59:16;;;;;;;37.47;16.83;;;;;;;7.03;85.14;100845.59;5121087;27;20701;-63
2022/12/05 11:01:48;;;;;;;38.37;17.63;;;;;;;7.01;84.95;100836.94;5121795;27;20214;-64
2022/12/05 11:04:29;;;;;;;41.30;18.17;;;;;;;6.97;85.46;100832.84;5119480;27;20622;-63
2022/12/05 11:06:59;;;;;;;36.77;16.47;;;;;;;6.91;86.01;100830.69;5119516;27;20206;-64
2022/12/05 11:09:31;;;;;;;36.37;16.63;;;;;;;6.86;86.89;100831.00;5114109;27;20197;-64
2022/12/05 11:12:14;;;;;;;34.87;16.07;;;;;;;6.95;86.31;100830.31;5121368;27;20622;-63
2022/12/05 11:14:54;;;;;;;35.00;16.00;;;;;;;6.93;86.60;100832.25;5116614;28;20206;-64
2022/12/05 11:17:25;;;;;;;35.20;16.23;;;;;;;6.97;86.78;100838.97;5117700;27;20210;-64
2022/12/05 11:19:53;;;;;;;39.67;18.10;;;;;;;7.06;85.77;100835.63;5120691;28;20290;-63
2022/12/05 11:22:31;;;;;;;32.73;16.07;;;;;;;7.01;86.20;100831.66;5123827;27;20206;-63
2022/12/05 11:25:00;;;;;;;33.40;16.17;;;;;;;7.02;86.55;100833.34;5117743;27;20202;-63
2022/12/05 11:27:31;;;;;;;34.83;16.77;;;;;;;7.03;86.20;100835.03;5118171;27;20218;-63
2022/12/05 11:30:03;;;;;;;33.67;16.20;;;;;;;7.06;86.06;100835.63;5121343;27;20204;-63
2022/12/05 11:32:33;;;;;;;35.53;17.43;;;;;;;7.01;86.13;100832.50;5125740;27;20283;-63
2022/12/05 11:35:09;;;;;;;36.60;16.70;;;;;;;7.06;86.40;100833.00;5123117;27;20412;-63
2022/12/05 11:37:44;;;;;;;34.63;17.47;;;;;;;7.02;86.43;100828.06;5124750;27;20260;-63
2022/12/05 11:40:29;;;;;;;35.83;17.00;;;;;;;6.99;86.74;100829.16;5128937;27;20207;-63
2022/12/05 11:43:27;;;;;;;33.53;16.00;;;;;;;6.97;87.10;100820.50;5131125;27;20200;-64